Time,TemperatureF,DewpointF,PressureIn,WindDirection,WindDirectionDegrees,WindSpeedMPH,WindSpeedGustMPH,Humidity,HourlyPrecipIn,Conditions,Clouds,dailyrainin,SoftwareType,DateUTC
2013-02-19 00:02:00,49.0,34.0,-100.00,South,180,14.0,26.0,56,-99.99,,,-99.99,,2013-02-19 05:02:00,
2013-02-19 00:12:00,49.0,34.0,-100.00,South,180,14.0,26.0,56,-99.99,,,-99.99,,2013-02-19 05:12:00,
2013-02-19 00:22:00,48.0,34.0,-100.00,South,180,16.0,24.0,58,-99.99,,,-99.99,,2013-02-19 05:22:00,
2013-02-19 00:32:00,47.0,35.0,-100.00,South,180,14.0,24.0,61,-99.99,,,-99.99,,2013-02-19 05:32:00,
2013-02-19 00:43:00,47.0,36.0,-100.00,South,185,14.0,22.0,65,-99.99,,,-99.99,,2013-02-19 05:43:00,
2013-02-19 00:52:00,46.0,36.0,-100.00,South,185,14.0,22.0,67,-99.99,,,-99.99,,2013-02-19 05:52:00,
2013-02-19 01:03:00,46.0,36.0,-100.00,South,185,14.0,22.0,67,-99.99,,,-99.99,,2013-02-19 06:03:00,
2013-02-19 01:12:00,45.0,38.0,-100.00,South,175,14.0,27.0,76,-99.99,,,-99.99,,2013-02-19 06:12:00,
2013-02-19 01:22:00,44.0,39.0,-100.00,South,175,15.0,22.0,81,-99.99,,,-99.99,,2013-02-19 06:22:00,
2013-02-19 01:32:00,44.0,39.0,-100.00,South,170,11.0,19.0,83,-99.99,,,-99.99,,2013-02-19 06:32:00,
2013-02-19 01:42:00,44.0,39.0,-100.00,South,175,14.0,23.0,83,-99.99,,,-99.99,,2013-02-19 06:42:00,
2013-02-19 01:52:00,44.0,40.0,-100.00,South,185,13.0,25.0,83,-99.99,,,-99.99,,2013-02-19 06:52:00,
2013-02-19 02:02:00,45.0,39.0,-100.00,South,175,17.0,29.0,82,-99.99,,,-99.99,,2013-02-19 07:02:00,
2013-02-19 02:11:00,44.0,39.0,-100.00,South,170,17.0,25.0,83,-99.99,,,-99.99,,2013-02-19 07:11:00,
2013-02-19 02:22:00,44.0,39.0,-100.00,South,170,19.0,29.0,82,-99.99,,,-99.99,,2013-02-19 07:22:00,
2013-02-19 02:32:00,44.0,39.0,-100.00,South,180,19.0,29.0,82,-99.99,,,-99.99,,2013-02-19 07:32:00,
2013-02-19 02:42:00,44.0,39.0,-100.00,South,175,22.0,34.0,83,-99.99,,,-99.99,,2013-02-19 07:42:00,
2013-02-19 02:52:00,44.0,40.0,-100.00,South,180,18.0,32.0,85,-99.99,,,-99.99,,2013-02-19 07:52:00,
2013-02-19 03:02:00,43.0,40.0,-100.00,South,185,17.0,30.0,86,-99.99,,,-99.99,,2013-02-19 08:02:00,
2013-02-19 03:11:00,44.0,40.0,-100.00,South,170,20.0,29.0,86,-99.99,,,-99.99,,2013-02-19 08:11:00,
2013-02-19 03:21:00,44.0,40.0,-100.00,South,185,18.0,31.0,86,-99.99,,,-99.99,,2013-02-19 08:21:00,
2013-02-19 03:32:00,44.0,40.0,-100.00,SSE,160,19.0,27.0,87,-99.99,,,-99.99,,2013-02-19 08:32:00,
2013-02-19 03:42:00,43.0,40.0,-100.00,South,180,18.0,25.0,88,-99.99,,,-99.99,,2013-02-19 08:42:00,
2013-02-19 03:52:00,43.0,40.0,-100.00,South,180,19.0,29.0,88,-99.99,,,-99.99,,2013-02-19 08:52:00,
2013-02-19 04:02:00,44.0,40.0,-100.00,South,185,19.0,29.0,87,-99.99,,,-99.99,,2013-02-19 09:02:00,
2013-02-19 04:11:00,44.0,40.0,-100.00,South,185,19.0,28.0,87,-99.99,,,-99.99,,2013-02-19 09:11:00,
2013-02-19 04:22:00,44.0,41.0,-100.00,South,190,16.0,26.0,87,-99.99,,,-99.99,,2013-02-19 09:22:00,
2013-02-19 04:32:00,45.0,41.0,-100.00,SSW,195,19.0,29.0,86,-99.99,,,-99.99,,2013-02-19 09:32:00,
2013-02-19 04:42:00,45.0,40.0,-100.00,South,175,17.0,30.0,85,-99.99,,,-99.99,,2013-02-19 09:42:00,
2013-02-19 04:52:00,45.0,40.0,-100.00,SSW,195,17.0,34.0,85,-99.99,,,-99.99,,2013-02-19 09:52:00,
2013-02-19 05:02:00,45.0,41.0,-100.00,SSW,195,19.0,29.0,85,-99.99,,,-99.99,,2013-02-19 10:02:00,
2013-02-19 05:11:00,43.0,40.0,-100.00,SW,220,29.0,40.0,87,-99.99,,,-99.99,,2013-02-19 10:11:00,
2013-02-19 05:22:00,43.0,40.0,-100.00,SW,220,29.0,40.0,87,-99.99,,,-99.99,,2013-02-19 10:22:00,
2013-02-19 05:32:00,37.0,35.0,-100.00,SW,235,21.0,35.0,90,-99.99,,,-99.99,,2013-02-19 10:32:00,
2013-02-19 05:42:00,36.0,34.0,-100.00,SW,230,21.0,31.0,92,-99.99,,,-99.99,,2013-02-19 10:42:00,
2013-02-19 05:51:00,35.0,34.0,-100.00,SW,225,21.0,27.0,93,-99.99,,,-99.99,,2013-02-19 10:51:00,
2013-02-19 06:01:00,35.0,34.0,-100.00,SW,235,20.0,27.0,93,-99.99,,,-99.99,,2013-02-19 11:01:00,
2013-02-19 06:22:00,36.0,34.0,-100.00,SW,235,18.0,27.0,92,-99.99,,,-99.99,,2013-02-19 11:22:00,
2013-02-19 06:32:00,36.0,34.0,-100.00,SW,235,19.0,30.0,92,-99.99,,,-99.99,,2013-02-19 11:32:00,
2013-02-19 06:42:00,35.0,33.0,-100.00,WSW,250,16.0,29.0,90,-99.99,,,-99.99,,2013-02-19 11:42:00,
2013-02-19 06:52:00,35.0,32.0,-100.00,WSW,245,17.0,29.0,90,-99.99,,,-99.99,,2013-02-19 11:52:00,
2013-02-19 07:02:00,34.0,32.0,-100.00,WSW,240,18.0,24.0,90,-99.99,,,-99.99,,2013-02-19 12:02:00,
2013-02-19 07:12:00,33.0,31.0,-100.00,WSW,250,24.0,36.0,89,-99.99,,,-99.99,,2013-02-19 12:12:00,
2013-02-19 07:22:00,33.0,30.0,-100.00,WSW,245,20.0,30.0,89,-99.99,,,-99.99,,2013-02-19 12:22:00,
2013-02-19 07:32:00,33.0,30.0,-100.00,SW,235,19.0,32.0,90,-99.99,,,-99.99,,2013-02-19 12:32:00,
2013-02-19 07:42:00,32.0,30.0,-100.00,SW,235,22.0,30.0,91,-99.99,,,-99.99,,2013-02-19 12:42:00,
2013-02-19 07:52:00,31.0,28.0,-100.00,WSW,240,24.0,37.0,89,-99.99,,,-99.99,,2013-02-19 12:52:00,
2013-02-19 08:02:00,30.0,26.0,-100.00,SW,235,27.0,40.0,82,-99.99,,,-99.99,,2013-02-19 13:02:00,
2013-02-19 08:11:00,30.0,25.0,-100.00,SW,230,27.0,38.0,80,-99.99,,,-99.99,,2013-02-19 13:11:00,
2013-02-19 08:22:00,30.0,24.0,-100.00,WSW,240,24.0,39.0,78,-99.99,,,-99.99,,2013-02-19 13:22:00,
2013-02-19 08:32:00,30.0,24.0,-100.00,WSW,250,18.0,34.0,78,-99.99,,,-99.99,,2013-02-19 13:32:00,
2013-02-19 08:42:00,29.0,25.0,-100.00,WSW,255,17.0,29.0,81,-99.99,,,-99.99,,2013-02-19 13:42:00,
2013-02-19 08:52:00,29.0,25.0,-100.00,WSW,245,14.0,29.0,83,-99.99,,,-99.99,,2013-02-19 13:52:00,
2013-02-19 09:02:00,29.0,25.0,-100.00,WSW,245,16.0,30.0,84,-99.99,,,-99.99,,2013-02-19 14:02:00,
2013-02-19 09:12:00,28.0,23.0,-100.00,WSW,255,21.0,32.0,82,-99.99,,,-99.99,,2013-02-19 14:12:00,
2013-02-19 09:22:00,28.0,22.0,-100.00,West,260,18.0,32.0,77,-99.99,,,-99.99,,2013-02-19 14:22:00,
2013-02-19 09:33:00,28.0,21.0,-100.00,WSW,255,17.0,31.0,77,-99.99,,,-99.99,,2013-02-19 14:33:00,
2013-02-19 09:42:00,28.0,22.0,-100.00,WSW,240,18.0,28.0,78,-99.99,,,-99.99,,2013-02-19 14:42:00,
2013-02-19 09:52:00,27.0,20.0,-100.00,WSW,240,23.0,34.0,75,-99.99,,,-99.99,,2013-02-19 14:52:00,
2013-02-19 10:02:00,27.0,21.0,-100.00,SW,235,20.0,34.0,75,-99.99,,,-99.99,,2013-02-19 15:02:00,
2013-02-19 10:11:00,27.0,19.0,-100.00,WSW,245,20.0,35.0,73,-99.99,,,-99.99,,2013-02-19 15:11:00,
2013-02-19 10:21:00,26.0,19.0,-100.00,WSW,250,20.0,41.0,72,-99.99,,,-99.99,,2013-02-19 15:21:00,
2013-02-19 10:32:00,27.0,19.0,-100.00,WSW,240,20.0,34.0,72,-99.99,,,-99.99,,2013-02-19 15:32:00,
2013-02-19 10:42:00,27.0,19.0,-100.00,SW,235,22.0,35.0,72,-99.99,,,-99.99,,2013-02-19 15:42:00,
2013-02-19 10:52:00,28.0,20.0,-100.00,SW,230,21.0,29.0,72,-99.99,,,-99.99,,2013-02-19 15:52:00,
2013-02-19 11:02:00,28.0,21.0,-100.00,SW,230,19.0,30.0,74,-99.99,,,-99.99,,2013-02-19 16:02:00,
2013-02-19 11:11:00,28.0,21.0,-100.00,SW,230,19.0,30.0,74,-99.99,,,-99.99,,2013-02-19 16:11:00,
2013-02-19 11:22:00,28.0,21.0,-100.00,SW,230,22.0,32.0,75,-99.99,,,-99.99,,2013-02-19 16:22:00,
2013-02-19 11:32:00,28.0,22.0,-100.00,SW,230,22.0,32.0,76,-99.99,,,-99.99,,2013-02-19 16:32:00,
2013-02-19 11:42:00,28.0,22.0,-100.00,WSW,240,17.0,34.0,78,-99.99,,,-99.99,,2013-02-19 16:42:00,
2013-02-19 11:52:00,27.0,21.0,-100.00,WSW,250,14.0,27.0,76,-99.99,,,-99.99,,2013-02-19 16:52:00,
2013-02-19 12:01:00,26.0,20.0,-100.00,WSW,240,21.0,34.0,77,-99.99,,,-99.99,,2013-02-19 17:01:00,
2013-02-19 12:11:00,26.0,20.0,-100.00,WSW,255,18.0,30.0,78,-99.99,,,-99.99,,2013-02-19 17:11:00,
2013-02-19 12:21:00,27.0,21.0,-100.00,West,265,11.0,28.0,79,-99.99,,,-99.99,,2013-02-19 17:21:00,
2013-02-19 12:32:00,27.0,21.0,-100.00,SW,230,20.0,25.0,78,-99.99,,,-99.99,,2013-02-19 17:32:00,
2013-02-19 12:42:00,27.0,21.0,-100.00,SW,230,20.0,25.0,78,-99.99,,,-99.99,,2013-02-19 17:42:00,
2013-02-19 12:52:00,27.0,21.0,-100.00,SW,230,20.0,25.0,78,-99.99,,,-99.99,,2013-02-19 17:52:00,
2013-02-19 13:02:00,26.0,20.0,-100.00,WSW,240,19.0,34.0,77,-99.99,,,-99.99,,2013-02-19 18:02:00,
2013-02-19 13:11:00,26.0,18.0,-100.00,SW,235,27.0,39.0,70,-99.99,,,-99.99,,2013-02-19 18:11:00,
2013-02-19 13:21:00,26.0,18.0,-100.00,SW,235,27.0,39.0,70,-99.99,,,-99.99,,2013-02-19 18:21:00,
2013-02-19 13:32:00,26.0,18.0,-100.00,SW,235,18.0,33.0,69,-99.99,,,-99.99,,2013-02-19 18:32:00,
2013-02-19 13:42:00,26.0,17.0,-100.00,West,260,18.0,37.0,69,-99.99,,,-99.99,,2013-02-19 18:42:00,
2013-02-19 13:51:00,25.0,16.0,-100.00,West,265,21.0,34.0,67,-99.99,,,-99.99,,2013-02-19 18:51:00,
2013-02-19 14:01:00,25.0,16.0,-100.00,WSW,250,20.0,33.0,69,-99.99,,,-99.99,,2013-02-19 19:01:00,
2013-02-19 14:11:00,25.0,16.0,-100.00,WSW,250,20.0,33.0,69,-99.99,,,-99.99,,2013-02-19 19:11:00,
2013-02-19 14:21:00,24.0,15.0,-100.00,West,265,19.0,33.0,68,-99.99,,,-99.99,,2013-02-19 19:21:00,
2013-02-19 14:32:00,25.0,16.0,-100.00,WSW,255,14.0,33.0,68,-99.99,,,-99.99,,2013-02-19 19:32:00,
2013-02-19 14:42:00,24.0,16.0,-100.00,WSW,250,22.0,32.0,69,-99.99,,,-99.99,,2013-02-19 19:42:00,
2013-02-19 14:52:00,25.0,17.0,-100.00,WSW,240,21.0,32.0,70,-99.99,,,-99.99,,2013-02-19 19:52:00,
2013-02-19 15:02:00,25.0,16.0,-100.00,WSW,245,17.0,35.0,68,-99.99,,,-99.99,,2013-02-19 20:02:00,
2013-02-19 15:12:00,25.0,15.0,-100.00,West,260,21.0,29.0,65,-99.99,,,-99.99,,2013-02-19 20:12:00,
2013-02-19 15:22:00,25.0,14.0,-100.00,WSW,250,20.0,37.0,64,-99.99,,,-99.99,,2013-02-19 20:22:00,
2013-02-19 15:32:00,24.0,15.0,-100.00,West,265,24.0,34.0,66,-99.99,,,-99.99,,2013-02-19 20:32:00,
2013-02-19 15:42:00,25.0,16.0,-100.00,West,260,19.0,31.0,67,-99.99,,,-99.99,,2013-02-19 20:42:00,
2013-02-19 15:52:00,25.0,15.0,-100.00,West,260,17.0,36.0,67,-99.99,,,-99.99,,2013-02-19 20:52:00,
2013-02-19 16:02:00,25.0,15.0,-100.00,West,260,17.0,36.0,67,-99.99,,,-99.99,,2013-02-19 21:02:00,
2013-02-19 16:11:00,24.0,17.0,-100.00,WSW,245,17.0,30.0,72,-99.99,,,-99.99,,2013-02-19 21:11:00,
2013-02-19 16:21:00,24.0,17.0,-100.00,West,265,20.0,30.0,76,-99.99,,,-99.99,,2013-02-19 21:21:00,
2013-02-19 16:32:00,24.0,18.0,-100.00,West,260,16.0,31.0,77,-99.99,,,-99.99,,2013-02-19 21:32:00,
2013-02-19 16:42:00,23.0,18.0,-100.00,WSW,250,19.0,26.0,80,-99.99,,,-99.99,,2013-02-19 21:42:00,
2013-02-19 16:51:00,22.0,19.0,-100.00,WSW,245,16.0,29.0,86,-99.99,,,-99.99,,2013-02-19 21:51:00,
2013-02-19 17:02:00,21.0,18.0,-100.00,SW,230,16.0,32.0,86,-99.99,,,-99.99,,2013-02-19 22:02:00,
2013-02-19 17:11:00,21.0,18.0,-100.00,WSW,245,16.0,27.0,85,-99.99,,,-99.99,,2013-02-19 22:11:00,
2013-02-19 17:21:00,21.0,16.0,-100.00,SW,230,18.0,29.0,79,-99.99,,,-99.99,,2013-02-19 22:21:00,
2013-02-19 17:32:00,21.0,14.0,-100.00,WSW,255,14.0,35.0,74,-99.99,,,-99.99,,2013-02-19 22:32:00,
2013-02-19 17:42:00,21.0,14.0,-100.00,WSW,255,14.0,35.0,74,-99.99,,,-99.99,,2013-02-19 22:42:00,
2013-02-19 17:52:00,21.0,14.0,-100.00,West,260,14.0,29.0,74,-99.99,,,-99.99,,2013-02-19 22:52:00,
2013-02-19 18:01:00,21.0,16.0,-100.00,WSW,240,14.0,26.0,80,-99.99,,,-99.99,,2013-02-19 23:01:00,
2013-02-19 18:11:00,20.0,15.0,-100.00,WSW,240,17.0,28.0,80,-99.99,,,-99.99,,2013-02-19 23:11:00,
2013-02-19 18:21:00,20.0,16.0,-100.00,WSW,255,16.0,25.0,82,-99.99,,,-99.99,,2013-02-19 23:21:00,
2013-02-19 18:32:00,20.0,15.0,-100.00,West,265,16.0,27.0,80,-99.99,,,-99.99,,2013-02-19 23:32:00,
2013-02-19 18:42:00,20.0,16.0,-100.00,WSW,250,14.0,28.0,84,-99.99,,,-99.99,,2013-02-19 23:42:00,
2013-02-19 18:52:00,20.0,15.0,-100.00,WSW,250,15.0,27.0,82,-99.99,,,-99.99,,2013-02-19 23:52:00,
2013-02-19 19:01:00,20.0,16.0,-100.00,West,260,12.0,24.0,84,-99.99,,,-99.99,,2013-02-20 00:01:00,
2013-02-19 19:11:00,20.0,15.0,-100.00,West,275,12.0,22.0,83,-99.99,,,-99.99,,2013-02-20 00:11:00,
2013-02-19 19:21:00,20.0,15.0,-100.00,WSW,250,12.0,18.0,82,-99.99,,,-99.99,,2013-02-20 00:21:00,
2013-02-19 19:32:00,20.0,15.0,-100.00,West,270,13.0,22.0,80,-99.99,,,-99.99,,2013-02-20 00:32:00,
2013-02-19 19:42:00,20.0,13.0,-100.00,West,275,14.0,25.0,74,-99.99,,,-99.99,,2013-02-20 00:42:00,
2013-02-19 19:52:00,20.0,12.0,-100.00,West,260,12.0,30.0,71,-99.99,,,-99.99,,2013-02-20 00:52:00,
2013-02-19 20:02:00,20.0,12.0,-100.00,West,260,14.0,25.0,71,-99.99,,,-99.99,,2013-02-20 01:02:00,
2013-02-19 20:11:00,19.0,11.0,-100.00,West,265,17.0,29.0,68,-99.99,,,-99.99,,2013-02-20 01:11:00,
2013-02-19 20:21:00,19.0,10.0,-100.00,WSW,250,14.0,23.0,66,-99.99,,,-99.99,,2013-02-20 01:21:00,
2013-02-19 20:32:00,19.0,9.0,-100.00,West,265,17.0,27.0,66,-99.99,,,-99.99,,2013-02-20 01:32:00,
2013-02-19 20:42:00,19.0,10.0,-100.00,WSW,255,16.0,27.0,69,-99.99,,,-99.99,,2013-02-20 01:42:00,
2013-02-19 20:52:00,19.0,10.0,-100.00,WSW,255,16.0,27.0,69,-99.99,,,-99.99,,2013-02-20 01:52:00,
2013-02-19 21:02:00,18.0,10.0,-100.00,WSW,245,12.0,22.0,70,-99.99,,,-99.99,,2013-02-20 02:02:00,
2013-02-19 21:11:00,18.0,10.0,-100.00,WSW,250,12.0,24.0,71,-99.99,,,-99.99,,2013-02-20 02:11:00,
2013-02-19 21:21:00,18.0,11.0,-100.00,West,260,10.0,25.0,71,-99.99,,,-99.99,,2013-02-20 02:21:00,
2013-02-19 21:32:00,18.0,10.0,-100.00,West,265,15.0,25.0,69,-99.99,,,-99.99,,2013-02-20 02:32:00,
2013-02-19 21:42:00,18.0,9.0,-100.00,WSW,255,16.0,24.0,68,-99.99,,,-99.99,,2013-02-20 02:42:00,
2013-02-19 21:52:00,18.0,9.0,-100.00,WSW,250,12.0,21.0,68,-99.99,,,-99.99,,2013-02-20 02:52:00,
2013-02-19 22:02:00,18.0,8.0,-100.00,WSW,250,16.0,22.0,66,-99.99,,,-99.99,,2013-02-20 03:02:00,
2013-02-19 22:12:00,18.0,8.0,-100.00,WSW,250,12.0,23.0,65,-99.99,,,-99.99,,2013-02-20 03:12:00,
2013-02-19 22:22:00,18.0,8.0,-100.00,WSW,245,12.0,21.0,66,-99.99,,,-99.99,,2013-02-20 03:22:00,
2013-02-19 22:32:00,18.0,8.0,-100.00,WSW,245,12.0,21.0,66,-99.99,,,-99.99,,2013-02-20 03:32:00,
2013-02-19 22:42:00,18.0,9.0,-100.00,SW,235,12.0,20.0,69,-99.99,,,-99.99,,2013-02-20 03:42:00,
2013-02-19 22:52:00,18.0,9.0,-100.00,WSW,255,14.0,21.0,69,-99.99,,,-99.99,,2013-02-20 03:52:00,
2013-02-19 23:01:00,18.0,9.0,-100.00,WSW,240,13.0,20.0,68,-99.99,,,-99.99,,2013-02-20 04:01:00,
2013-02-19 23:11:00,18.0,9.0,-100.00,SW,235,14.0,22.0,68,-99.99,,,-99.99,,2013-02-20 04:11:00,
2013-02-19 23:21:00,18.0,10.0,-100.00,WSW,245,12.0,23.0,69,-99.99,,,-99.99,,2013-02-20 04:21:00,
2013-02-19 23:32:00,18.0,10.0,-100.00,WSW,250,12.0,21.0,70,-99.99,,,-99.99,,2013-02-20 04:32:00,
2013-02-19 23:42:00,18.0,10.0,-100.00,WSW,245,14.0,24.0,71,-99.99,,,-99.99,,2013-02-20 04:42:00,
2013-02-19 23:52:00,18.0,10.0,-100.00,West,260,17.0,23.0,71,-99.99,,,-99.99,,2013-02-20 04:52:00,